Fair Bluff, North Carolina
Current Conditions -  °F | °C
As of 5:35 AM on Monday 22 Dec 2014 (Local Time) from KCPC Reporting Station
Haze Haze  
Wind Chill: 38°   Ceiling: 600
Heat Index: 42°   Visibility: 4mi
Dew Point: 41°   Wind: 7mph
Humidity: 95%   Direction: 10°N
Pressure: 30.06"   Gusts: NA
Location:  34.31°N, 79.04°W
Report Text: KCPC 221035Z AUTO 01006KT 4SM BR OVC006 06/05 A3006 RMK AO2 T00570050
Loading
Personal Weather Stations






























Interactive Weather Map New forecast layout! Learn more

10-Day Weather Forecast

Advertisements
Track Severe Weather on mobile